createdAt,value
2019-05-07T00:01:23.234Z,44.51
2019-05-07T00:03:52.876Z,44.60
2019-05-07T00:06:23.113Z,44.17
2019-05-07T00:08:52.634Z,43.62
2019-05-07T00:11:22.427Z,44.52
2019-05-07T00:13:52.284Z,43.91
2019-05-07T00:16:22.460Z,44.18
2019-05-07T00:18:52.521Z,44.28
2019-05-07T00:21:23.279Z,44.33
2019-05-07T00:23:52.781Z,44.16
2019-05-07T00:26:22.625Z,44.44
2019-05-07T00:28:52.658Z,44.42
2019-05-07T00:31:23.236Z,44.32
2019-05-07T00:33:52.738Z,44.15
2019-05-07T00:36:42.819Z,43.81
2019-05-07T00:39:29.808Z,44.09
2019-05-07T00:42:22.040Z,44.23
2019-05-07T00:45:17.091Z,45.44
2019-05-07T00:47:36.026Z,44.90
2019-05-07T00:50:12.870Z,44.91
2019-05-07T00:52:43.016Z,44.51
2019-05-07T00:55:12.386Z,45.89
2019-05-07T00:57:42.867Z,46.25
2019-05-07T01:00:13.123Z,45.24
2019-05-07T01:02:43.184Z,45.46
2019-05-07T01:05:12.712Z,45.70
2019-05-07T01:07:42.109Z,45.83
2019-05-07T01:10:12.831Z,46.34
2019-05-07T01:12:42.405Z,46.66
2019-05-07T01:15:12.873Z,45.82
2019-05-07T01:17:42.601Z,47.11
2019-05-07T01:20:12.581Z,47.67
2019-05-07T01:22:42.501Z,46.84
2019-05-07T01:25:12.867Z,46.44
2019-05-07T01:27:42.761Z,46.87
2019-05-07T01:30:13.022Z,47.45
2019-05-07T01:32:53.248Z,47.48
2019-05-07T01:35:42.258Z,47.22
2019-05-07T01:38:12.341Z,48.05
2019-05-07T01:40:42.776Z,47.76
2019-05-07T01:43:12.220Z,47.58
2019-05-07T01:45:48.991Z,47.65
2019-05-07T01:48:15.989Z,48.18
2019-05-07T01:50:45.375Z,47.91
2019-05-07T01:53:14.635Z,47.96
2019-05-07T01:55:43.901Z,48.92
2019-05-07T01:58:13.190Z,49.22
2019-05-07T02:00:42.667Z,48.48
2019-05-07T02:03:33.694Z,48.40
2019-05-07T02:06:08.751Z,49.19
2019-05-07T02:08:43.935Z,49.43
2019-05-07T02:11:15.300Z,49.56
2019-05-07T02:13:44.590Z,49.95
2019-05-07T02:16:13.890Z,50.37
2019-05-07T02:18:43.153Z,50.87
2019-05-07T02:21:12.960Z,51.07
2019-05-07T02:23:42.665Z,50.10
2019-05-07T02:26:13.417Z,50.52
2019-05-07T02:28:42.864Z,50.40
2019-05-07T02:31:14.926Z,49.96
2019-05-07T02:33:43.684Z,49.87
2019-05-07T02:36:14.303Z,49.53
2019-05-07T02:39:08.754Z,50.55
2019-05-07T02:41:38.145Z,50.68
2019-05-07T02:44:07.408Z,49.96
2019-05-07T02:47:04.621Z,49.42
2019-05-07T02:49:48.865Z,49.73
2019-05-07T02:52:37.080Z,50.39
2019-05-07T02:55:15.776Z,50.66
2019-05-07T02:57:45.108Z,49.82
2019-05-07T03:00:19.109Z,48.59
2019-05-07T03:02:45.867Z,48.52
2019-05-07T03:05:15.930Z,48.75
2019-05-07T03:07:45.203Z,48.92
2019-05-07T03:10:14.511Z,48.30
2019-05-07T03:12:43.797Z,47.84
2019-05-07T03:15:13.406Z,48.00
2019-05-07T03:17:43.087Z,49.10
2019-05-07T03:20:16.529Z,49.08
2019-05-07T03:22:45.804Z,49.15
2019-05-07T03:25:23.083Z,48.55
2019-05-07T03:27:53.514Z,48.58
2019-05-07T03:30:57.418Z,48.47
2019-05-07T03:33:46.861Z,49.07
2019-05-07T03:36:16.890Z,49.21
2019-05-07T03:38:44.161Z,48.98
2019-05-07T03:41:13.389Z,48.54
2019-05-07T03:43:43.597Z,48.00
2019-05-07T03:46:15.196Z,48.51
2019-05-07T03:48:46.130Z,48.15
2019-05-07T03:51:15.390Z,48.47
2019-05-07T03:53:44.659Z,48.60
2019-05-07T03:56:13.934Z,48.87
2019-05-07T03:58:43.819Z,49.66
2019-05-07T04:01:13.736Z,49.64
2019-05-07T04:03:44.742Z,49.85
2019-05-07T04:06:14.371Z,49.23
2019-05-07T04:08:43.688Z,48.10
2019-05-07T04:11:13.805Z,48.51
2019-05-07T04:13:44.242Z,47.63
2019-05-07T04:16:13.942Z,48.07
2019-05-07T04:18:43.938Z,48.01
2019-05-07T04:21:14.089Z,49.34
2019-05-07T04:23:44.067Z,48.75
2019-05-07T04:26:23.175Z,47.89
2019-05-07T04:29:05.731Z,47.22
2019-05-07T04:31:38.687Z,48.10
2019-05-07T04:34:13.757Z,47.79
2019-05-07T04:36:45.837Z,47.34
2019-05-07T04:39:15.157Z,46.96
2019-05-07T04:41:44.417Z,47.25
2019-05-07T04:44:14.218Z,46.32
2019-05-07T04:46:47.919Z,46.51
2019-05-07T04:49:14.828Z,46.76
2019-05-07T04:51:52.692Z,47.76
2019-05-07T04:54:23.768Z,47.39
2019-05-07T04:56:53.092Z,48.00
2019-05-07T04:59:23.735Z,48.65
2019-05-07T05:01:59.969Z,47.82
2019-05-07T05:04:31.493Z,48.24
2019-05-07T05:07:02.621Z,48.02
2019-05-07T05:09:32.941Z,47.17
2019-05-07T05:12:02.839Z,47.63
2019-05-07T05:14:33.883Z,47.54
2019-05-07T05:17:03.262Z,47.04
2019-05-07T05:19:32.531Z,46.47
2019-05-07T05:22:26.631Z,46.14
2019-05-07T05:25:27.014Z,45.21
2019-05-07T05:27:56.292Z,43.96
2019-05-07T05:30:38.178Z,44.53
2019-05-07T05:33:07.460Z,45.05
2019-05-07T05:35:36.991Z,44.78
2019-05-07T05:38:06.325Z,45.26
2019-05-07T05:40:35.592Z,44.70
2019-05-07T05:43:26.669Z,44.17
2019-05-07T05:45:57.788Z,43.97
2019-05-07T05:48:27.034Z,43.05
2019-05-07T05:51:05.758Z,42.37
2019-05-07T05:53:43.365Z,43.06
2019-05-07T05:56:20.044Z,42.71
2019-05-07T05:59:12.087Z,41.95
2019-05-07T06:02:11.960Z,42.03
2019-05-07T06:04:55.415Z,42.56
2019-05-07T06:07:35.637Z,42.22
2019-05-07T06:10:24.305Z,42.41
2019-05-07T06:13:23.100Z,41.66
2019-05-07T06:15:57.258Z,41.64
2019-05-07T06:18:54.788Z,42.94
2019-05-07T06:21:41.911Z,42.72
2019-05-07T06:24:13.175Z,41.92
2019-05-07T06:26:42.630Z,42.61
2019-05-07T06:29:11.997Z,42.30
2019-05-07T06:31:42.216Z,41.48
2019-05-07T06:34:12.472Z,41.27
2019-05-07T06:36:42.466Z,41.37
2019-05-07T06:39:22.258Z,41.32
2019-05-07T06:42:09.164Z,40.96
2019-05-07T06:44:38.435Z,41.68
2019-05-07T06:47:07.691Z,40.80
2019-05-07T06:49:37.004Z,39.72
2019-05-07T06:52:06.270Z,39.31
2019-05-07T06:54:35.614Z,40.18
2019-05-07T06:57:04.863Z,39.11
2019-05-07T06:59:42.657Z,38.73
2019-05-07T07:02:32.814Z,39.07
2019-05-07T07:05:07.491Z,40.12
2019-05-07T07:07:45.877Z,39.90
2019-05-07T07:10:34.197Z,39.87
2019-05-07T07:13:03.600Z,39.17
2019-05-07T07:15:32.901Z,39.53
2019-05-07T07:18:03.181Z,38.93
2019-05-07T07:20:32.798Z,38.73
2019-05-07T07:23:02.434Z,38.16
2019-05-07T07:25:32.632Z,37.69
2019-05-07T07:28:02.733Z,37.35
2019-05-07T07:30:45.622Z,37.06
2019-05-07T07:33:15.403Z,36.27
2019-05-07T07:35:44.719Z,36.27
2019-05-07T07:38:32.890Z,36.44
2019-05-07T07:41:07.339Z,37.34
2019-05-07T07:43:36.596Z,37.02
2019-05-07T07:46:05.981Z,35.69
2019-05-07T07:48:35.254Z,36.04
2019-05-07T07:51:04.555Z,38.19
2019-05-07T07:53:35.550Z,36.56
2019-05-07T07:56:23.122Z,36.79
2019-05-07T07:59:14.167Z,36.87
2019-05-07T08:01:48.945Z,36.64
2019-05-07T08:04:18.319Z,37.04
2019-05-07T08:06:49.220Z,35.68
2019-05-07T08:09:18.521Z,36.00
2019-05-07T08:11:47.800Z,35.87
2019-05-07T08:14:17.041Z,36.01
2019-05-07T08:16:46.336Z,36.78
2019-05-07T08:19:21.845Z,37.63
2019-05-07T08:21:46.769Z,38.05
2019-05-07T08:24:16.032Z,36.23
2019-05-07T08:26:45.305Z,35.40
2019-05-07T08:29:14.569Z,36.10
2019-05-07T08:31:51.797Z,34.69
2019-05-07T08:34:25.921Z,36.98
2019-05-07T08:36:55.210Z,36.62
2019-05-07T08:39:25.175Z,35.29
2019-05-07T08:41:54.590Z,35.60
2019-05-07T08:44:27.695Z,34.71
2019-05-07T08:47:25.039Z,35.32
2019-05-07T08:49:54.335Z,35.04
2019-05-07T08:52:26.159Z,33.29
2019-05-07T08:54:54.614Z,33.67
2019-05-07T08:57:23.935Z,33.39
2019-05-07T09:00:00.402Z,33.32
2019-05-07T09:02:25.876Z,32.58
2019-05-07T09:04:55.142Z,34.58
2019-05-07T09:07:24.453Z,34.10
2019-05-07T09:09:53.727Z,33.93
2019-05-07T09:12:23.192Z,34.81
2019-05-07T09:14:53.007Z,34.82
2019-05-07T09:17:23.052Z,34.65
2019-05-07T09:19:54.790Z,34.22
2019-05-07T09:22:23.438Z,34.13
2019-05-07T09:24:52.846Z,33.23
2019-05-07T09:27:29.980Z,32.88
2019-05-07T09:30:07.787Z,31.99
2019-05-07T09:32:45.478Z,32.11
2019-05-07T09:35:19.045Z,30.88
2019-05-07T09:37:48.366Z,31.11
2019-05-07T09:40:17.760Z,30.47
2019-05-07T09:42:47.061Z,30.39
2019-05-07T09:45:16.763Z,31.24
2019-05-07T09:47:46.093Z,31.37
2019-05-07T09:50:16.162Z,31.96
2019-05-07T09:52:45.559Z,33.06
2019-05-07T09:55:17.545Z,33.69
2019-05-07T09:57:45.944Z,32.96
2019-05-07T10:00:16.231Z,32.84
2019-05-07T10:02:45.512Z,33.38
2019-05-07T10:05:16.009Z,33.09
2019-05-07T10:07:45.452Z,32.55
2019-05-07T10:10:14.945Z,32.30
2019-05-07T10:12:53.984Z,33.60
2019-05-07T10:15:23.289Z,32.33
2019-05-07T10:18:08.191Z,31.34
2019-05-07T10:20:37.467Z,31.86
2019-05-07T10:23:08.417Z,33.46
2019-05-07T10:25:41.045Z,32.44
2019-05-07T10:28:12.347Z,32.44
2019-05-07T10:30:42.799Z,33.51
2019-05-07T10:33:12.462Z,35.29
2019-05-07T10:35:43.446Z,35.17
2019-05-07T10:38:12.850Z,34.42
2019-05-07T10:40:42.267Z,34.36
2019-05-07T10:43:11.527Z,34.24
2019-05-07T10:45:58.218Z,34.72
2019-05-07T10:48:39.640Z,33.80
2019-05-07T10:51:08.949Z,33.78
2019-05-07T10:53:38.241Z,34.87
2019-05-07T10:56:07.564Z,34.81
2019-05-07T10:58:36.847Z,34.72
2019-05-07T11:01:06.565Z,34.78
2019-05-07T11:03:35.836Z,34.42
2019-05-07T11:06:05.138Z,32.95
2019-05-07T11:08:34.423Z,32.93
2019-05-07T11:11:03.793Z,32.57
2019-05-07T11:13:33.179Z,32.40
2019-05-07T11:16:11.638Z,32.29
2019-05-07T11:18:48.266Z,33.28
2019-05-07T11:21:24.783Z,32.59
2019-05-07T11:23:54.078Z,33.32
2019-05-07T11:26:23.434Z,31.90
2019-05-07T11:28:52.694Z,33.82
2019-05-07T11:31:22.373Z,31.31
2019-05-07T11:33:52.112Z,32.90
2019-05-07T11:36:21.653Z,31.77
2019-05-07T11:38:53.798Z,31.84
2019-05-07T11:41:32.282Z,32.17
2019-05-07T11:44:12.446Z,31.26
2019-05-07T11:47:18.953Z,31.44
2019-05-07T11:50:05.509Z,30.73
2019-05-07T11:52:37.666Z,30.45
2019-05-07T11:55:07.715Z,30.05
2019-05-07T11:57:37.008Z,30.29
2019-05-07T12:00:09.892Z,30.69
2019-05-07T12:02:39.228Z,29.29
2019-05-07T12:05:09.265Z,29.72
2019-05-07T12:07:38.624Z,30.31
2019-05-07T12:10:08.015Z,31.52
2019-05-07T12:12:39.593Z,30.98
2019-05-07T12:15:08.922Z,29.81
2019-05-07T12:17:38.225Z,29.89
2019-05-07T12:20:07.573Z,29.08
2019-05-07T12:22:48.760Z,29.04
2019-05-07T12:25:18.844Z,28.83
2019-05-07T12:27:49.778Z,28.47
2019-05-07T12:30:38.818Z,30.63
2019-05-07T12:33:30.015Z,30.66
2019-05-07T12:35:59.393Z,29.74
2019-05-07T12:38:28.770Z,29.45
2019-05-07T12:40:59.888Z,28.87
2019-05-07T12:43:29.184Z,27.31
2019-05-07T12:45:58.482Z,28.00
2019-05-07T12:48:27.799Z,27.08
2019-05-07T12:50:57.290Z,29.51
2019-05-07T12:53:43.930Z,27.44
2019-05-07T12:56:13.243Z,26.82
2019-05-07T12:58:42.583Z,27.75
2019-05-07T13:01:23.525Z,28.12
2019-05-07T13:04:05.906Z,27.65
2019-05-07T13:06:38.922Z,26.24
2019-05-07T13:09:08.330Z,27.87
2019-05-07T13:11:37.664Z,27.66
2019-05-07T13:14:06.965Z,27.44
2019-05-07T13:16:36.306Z,27.11
2019-05-07T13:19:05.649Z,28.43
2019-05-07T13:21:46.425Z,28.27
2019-05-07T13:24:05.972Z,27.90
2019-05-07T13:26:35.509Z,28.24
2019-05-07T13:29:04.982Z,27.13
2019-05-07T13:31:34.883Z,30.02
2019-05-07T13:34:04.381Z,29.49
2019-05-07T13:36:35.636Z,27.81
2019-05-07T13:39:17.399Z,28.12
2019-05-07T13:41:58.698Z,29.90
2019-05-07T13:44:37.508Z,27.87
2019-05-07T13:47:24.717Z,25.83
2019-05-07T13:49:54.303Z,24.62
2019-05-07T13:52:25.126Z,24.10
2019-05-07T13:54:54.995Z,23.74
2019-05-07T13:57:24.385Z,24.97
2019-05-07T13:59:54.300Z,24.19
2019-05-07T14:02:25.466Z,24.21
2019-05-07T14:04:54.897Z,22.89
2019-05-07T14:07:25.005Z,22.78
2019-05-07T14:09:54.326Z,23.82
2019-05-07T14:12:23.730Z,23.26
2019-05-07T14:14:53.301Z,24.02
2019-05-07T14:17:22.856Z,24.09
2019-05-07T14:19:53.132Z,24.06
2019-05-07T14:22:22.854Z,23.75
2019-05-07T14:24:53.080Z,24.36
2019-05-07T14:27:22.601Z,25.60
2019-05-07T14:29:52.312Z,24.63
2019-05-07T14:32:33.885Z,24.90
2019-05-07T14:35:07.896Z,24.94
2019-05-07T14:37:43.366Z,24.40
2019-05-07T14:40:13.128Z,25.45
2019-05-07T14:42:46.946Z,24.94
2019-05-07T14:45:16.409Z,25.61
2019-05-07T14:47:45.829Z,24.69
2019-05-07T14:50:15.447Z,25.10
2019-05-07T14:52:44.784Z,25.96
2019-05-07T14:55:14.140Z,26.03
2019-05-07T14:57:43.476Z,25.76
2019-05-07T15:00:13.146Z,25.20
2019-05-07T15:02:42.644Z,24.90
2019-05-07T15:05:12.568Z,24.55
2019-05-07T15:07:42.116Z,25.96
2019-05-07T15:10:11.487Z,25.27
2019-05-07T15:12:42.612Z,25.57
2019-05-07T15:15:12.616Z,25.91
2019-05-07T15:17:56.775Z,26.79
2019-05-07T15:20:26.321Z,25.82
2019-05-07T15:23:22.056Z,25.29
2019-05-07T15:25:51.801Z,25.54
2019-05-07T15:28:22.847Z,26.44
2019-05-07T15:31:17.325Z,27.27
2019-05-07T15:33:46.595Z,26.54
2019-05-07T15:36:15.932Z,26.24
2019-05-07T15:38:45.233Z,26.98
2019-05-07T15:41:14.531Z,26.68
2019-05-07T15:43:46.187Z,26.28
2019-05-07T15:46:15.075Z,26.13
2019-05-07T15:48:44.319Z,25.56
2019-05-07T15:51:16.529Z,25.23
2019-05-07T15:53:48.802Z,25.30
2019-05-07T15:56:18.098Z,25.95
2019-05-07T15:58:47.390Z,25.72
2019-05-07T16:01:16.709Z,25.25
2019-05-07T16:03:46.576Z,24.54
2019-05-07T16:06:15.937Z,24.69
2019-05-07T16:08:57.692Z,25.22
2019-05-07T16:11:27.320Z,24.03
2019-05-07T16:14:26.180Z,24.72
2019-05-07T16:16:56.851Z,23.52
2019-05-07T16:19:29.695Z,22.72
2019-05-07T16:22:03.802Z,23.14
2019-05-07T16:24:33.090Z,23.90
2019-05-07T16:27:05.138Z,23.42
2019-05-07T16:29:35.684Z,24.05
2019-05-07T16:32:04.620Z,22.98
2019-05-07T16:34:33.912Z,22.87
2019-05-07T16:37:06.875Z,24.06
2019-05-07T16:39:34.256Z,25.41
2019-05-07T16:42:03.590Z,23.89
2019-05-07T16:44:33.181Z,24.00
2019-05-07T16:47:02.903Z,24.74
2019-05-07T16:49:32.338Z,24.59
2019-05-07T16:52:01.936Z,24.86
2019-05-07T16:54:31.340Z,25.46
2019-05-07T16:57:21.545Z,25.15
2019-05-07T16:59:52.206Z,25.14
2019-05-07T17:02:25.667Z,26.98
2019-05-07T17:05:14.597Z,25.76
2019-05-07T17:08:09.148Z,25.90
2019-05-07T17:10:38.417Z,25.58
2019-05-07T17:13:09.855Z,25.33
2019-05-07T17:18:42.428Z,26.24
2019-05-07T17:21:12.355Z,25.02
2019-05-07T17:23:44.676Z,25.91
2019-05-07T17:26:12.779Z,25.72
2019-05-07T17:28:42.681Z,26.04
2019-05-07T17:31:12.494Z,25.42
2019-05-07T17:33:42.476Z,25.92
2019-05-07T17:36:12.233Z,25.74
2019-05-07T17:38:42.909Z,26.46
2019-05-07T17:41:19.625Z,25.46
2019-05-07T17:43:43.448Z,25.45
2019-05-07T17:46:12.710Z,25.82
2019-05-07T17:48:42.812Z,25.30
2019-05-07T17:51:34.230Z,25.44
2019-05-07T17:54:03.586Z,24.97
2019-05-07T17:56:33.035Z,25.54
2019-05-07T17:59:02.945Z,26.01
2019-05-07T18:01:43.168Z,25.38
2019-05-07T18:04:12.549Z,25.48
2019-05-07T18:06:42.813Z,25.82
2019-05-07T18:09:12.299Z,26.94
2019-05-07T18:11:42.903Z,27.17
2019-05-07T18:14:12.282Z,26.93
2019-05-07T18:17:06.796Z,28.04
2019-05-07T18:19:36.225Z,27.88
2019-05-07T18:22:05.688Z,27.51
2019-05-07T18:24:35.117Z,27.41
2019-05-07T18:27:06.359Z,28.29
2019-05-07T18:29:35.919Z,28.20
2019-05-07T18:32:06.005Z,28.76
2019-05-07T18:34:35.443Z,28.61
2019-05-07T18:37:04.948Z,28.21
2019-05-07T18:39:34.343Z,29.15
2019-05-07T18:42:03.651Z,29.33
2019-05-07T18:44:33.188Z,28.98
2019-05-07T18:47:08.098Z,30.15
2019-05-07T18:49:38.032Z,29.68
2019-05-07T18:52:07.633Z,30.27
2019-05-07T18:54:37.044Z,30.73
2019-05-07T18:57:06.463Z,30.88
2019-05-07T18:59:37.060Z,31.61
2019-05-07T19:02:06.758Z,32.25
2019-05-07T19:04:36.140Z,31.35
2019-05-07T19:07:05.488Z,31.63
2019-05-07T19:09:35.009Z,31.84
2019-05-07T19:12:05.236Z,32.51
2019-05-07T19:14:36.627Z,31.94
2019-05-07T19:17:06.091Z,32.21
2019-05-07T19:19:35.486Z,32.91
2019-05-07T19:22:04.878Z,33.08
2019-05-07T19:24:44.263Z,33.58
2019-05-07T19:27:05.514Z,34.67
2019-05-07T19:29:34.886Z,34.34
2019-05-07T19:32:06.057Z,34.78
2019-05-07T19:34:35.387Z,35.34
2019-05-07T19:37:04.838Z,35.43
2019-05-07T19:39:37.301Z,35.65
2019-05-07T19:42:06.749Z,35.85
2019-05-07T19:44:36.223Z,36.03
2019-05-07T19:47:05.746Z,36.33
2019-05-07T19:49:35.435Z,36.72
2019-05-07T19:52:04.861Z,37.27
2019-05-07T19:54:34.279Z,36.30
2019-05-07T19:57:03.663Z,37.55
2019-05-07T19:59:33.071Z,36.58
2019-05-07T20:02:04.144Z,37.74
2019-05-07T20:04:33.707Z,37.68
2019-05-07T20:07:03.108Z,37.73
2019-05-07T20:09:35.045Z,37.38
2019-05-07T20:20:33.150Z,37.48
2019-05-07T20:27:33.249Z,38.62
2019-05-07T20:33:38.318Z,39.71
2019-05-07T20:36:07.893Z,39.64
2019-05-07T20:38:37.301Z,39.54
2019-05-07T20:41:06.714Z,40.62
2019-05-07T20:43:37.563Z,40.83
2019-05-07T20:46:06.999Z,41.31
2019-05-07T20:48:37.189Z,41.72
2019-05-07T20:51:06.628Z,41.93
2019-05-07T20:53:59.387Z,42.25
2019-05-07T20:56:32.305Z,42.29
2019-05-07T20:59:03.165Z,42.11
2019-05-07T21:01:35.111Z,41.35
2019-05-07T21:04:04.557Z,41.65
2019-05-07T21:06:33.980Z,41.32
2019-05-07T21:09:04.452Z,42.60
2019-05-07T21:11:33.980Z,42.15
2019-05-07T21:14:04.656Z,41.60
2019-05-07T21:16:35.613Z,41.53
2019-05-07T21:19:07.439Z,42.32
2019-05-07T21:21:38.204Z,42.96
2019-05-07T21:24:07.939Z,42.64
2019-05-07T21:26:37.358Z,43.82
2019-05-07T21:29:09.414Z,42.74
2019-05-07T21:31:43.047Z,44.24
2019-05-07T21:34:12.697Z,43.33
2019-05-07T21:36:45.613Z,44.27
2019-05-07T21:39:17.989Z,44.10
2019-05-07T21:41:47.378Z,44.39
2019-05-07T21:44:16.762Z,44.33
2019-05-07T21:46:46.247Z,44.58
2019-05-07T21:49:15.707Z,44.72
2019-05-07T21:51:45.077Z,44.34
2019-05-07T21:54:29.566Z,44.31
2019-05-07T21:57:24.156Z,44.19
2019-05-07T22:00:13.403Z,44.39
2019-05-07T22:02:42.833Z,43.95
2019-05-07T22:05:12.327Z,43.97
2019-05-07T22:07:41.666Z,45.22
2019-05-07T22:10:12.744Z,44.72
2019-05-07T22:12:42.239Z,44.49
2019-05-07T22:15:12.974Z,43.99
2019-05-07T22:17:44.335Z,45.06
2019-05-07T22:20:13.343Z,45.06
2019-05-07T22:22:42.847Z,45.72
2019-05-07T22:25:13.096Z,45.00
2019-05-07T22:27:42.533Z,45.24
2019-05-07T22:30:15.451Z,45.05
2019-05-07T22:32:53.649Z,45.63
2019-05-07T22:35:27.218Z,45.48
2019-05-07T22:37:56.586Z,45.12
2019-05-07T22:40:25.912Z,45.41
2019-05-07T22:42:55.310Z,45.51
2019-05-07T22:45:24.606Z,44.29
2019-05-07T22:47:53.968Z,44.67
2019-05-07T22:50:23.276Z,45.14
2019-05-07T22:52:54.393Z,44.78
2019-05-07T22:55:23.701Z,44.31
2019-05-07T22:57:58.768Z,44.41
2019-05-07T23:00:33.038Z,44.20
2019-05-07T23:03:02.912Z,44.74
2019-05-07T23:05:32.511Z,43.94
2019-05-07T23:08:02.417Z,43.57
2019-05-07T23:10:33.278Z,44.05
2019-05-07T23:13:02.798Z,44.22
2019-05-07T23:15:32.290Z,44.66
2019-05-07T23:18:04.081Z,44.05
2019-05-07T23:20:32.719Z,43.83
2019-05-07T23:23:02.077Z,43.28
2019-05-07T23:25:32.222Z,43.78
2019-05-07T23:28:04.880Z,43.21
2019-05-07T23:30:34.378Z,43.18
2019-05-07T23:33:03.673Z,43.53
2019-05-07T23:35:33.019Z,44.33
2019-05-07T23:38:02.603Z,44.37
2019-05-07T23:40:57.004Z,44.84
2019-05-07T23:43:26.270Z,44.08
2019-05-07T23:45:55.603Z,43.97
2019-05-07T23:48:24.887Z,44.33
2019-05-07T23:50:54.268Z,44.08
2019-05-07T23:53:23.591Z,44.13
2019-05-07T23:55:52.927Z,44.45
2019-05-07T23:58:23.076Z,44.12
